sensor_id;sensor_type;location;lat;lon;timestamp;P1;durP1;ratioP1;P2;durP2;ratioP2
49514;SDS011;35415;47.870;16.058;2023-02-22T00:01:40;1.10;;;0.90;;
49514;SDS011;35415;47.870;16.058;2023-02-22T00:04:15;1.08;;;0.88;;
49514;SDS011;35415;47.870;16.058;2023-02-22T00:06:45;0.98;;;0.80;;
49514;SDS011;35415;47.870;16.058;2023-02-22T00:09:15;2.78;;;1.23;;
49514;SDS011;35415;47.870;16.058;2023-02-22T00:14:17;1.75;;;0.85;;
49514;SDS011;35415;47.870;16.058;2023-02-22T00:16:45;1.23;;;0.77;;
49514;SDS011;35415;47.870;16.058;2023-02-22T00:19:14;3.80;;;1.65;;
49514;SDS011;35415;47.870;16.058;2023-02-22T00:21:42;2.33;;;0.98;;
49514;SDS011;35415;47.870;16.058;2023-02-22T00:24:10;1.80;;;1.20;;
49514;SDS011;35415;47.870;16.058;2023-02-22T00:26:50;2.50;;;1.45;;
49514;SDS011;35415;47.870;16.058;2023-02-22T00:29:19;3.53;;;1.70;;
49514;SDS011;35415;47.870;16.058;2023-02-22T00:31:47;2.05;;;1.17;;
49514;SDS011;35415;47.870;16.058;2023-02-22T00:34:15;2.53;;;1.23;;
49514;SDS011;35415;47.870;16.058;2023-02-22T00:36:44;3.30;;;1.45;;
49514;SDS011;35415;47.870;16.058;2023-02-22T00:39:13;2.70;;;1.13;;
49514;SDS011;35415;47.870;16.058;2023-02-22T00:41:40;1.88;;;0.80;;
49514;SDS011;35415;47.870;16.058;2023-02-22T00:44:10;1.52;;;0.90;;
49514;SDS011;35415;47.870;16.058;2023-02-22T00:46:37;6.68;;;1.23;;
49514;SDS011;35415;47.870;16.058;2023-02-22T00:49:05;1.67;;;0.77;;
49514;SDS011;35415;47.870;16.058;2023-02-22T00:51:32;1.63;;;0.95;;
49514;SDS011;35415;47.870;16.058;2023-02-22T00:54:00;1.02;;;0.82;;
49514;SDS011;35415;47.870;16.058;2023-02-22T00:56:27;0.85;;;0.60;;
49514;SDS011;35415;47.870;16.058;2023-02-22T00:58:55;1.80;;;0.60;;
49514;SDS011;35415;47.870;16.058;2023-02-22T01:01:24;0.75;;;0.70;;
49514;SDS011;35415;47.870;16.058;2023-02-22T01:03:51;1.50;;;0.80;;
49514;SDS011;35415;47.870;16.058;2023-02-22T01:06:21;3.65;;;1.10;;
49514;SDS011;35415;47.870;16.058;2023-02-22T01:08:48;5.43;;;2.42;;
49514;SDS011;35415;47.870;16.058;2023-02-22T01:11:16;3.35;;;2.00;;
49514;SDS011;35415;47.870;16.058;2023-02-22T01:13:44;3.33;;;1.60;;
49514;SDS011;35415;47.870;16.058;2023-02-22T01:16:11;4.40;;;1.58;;
49514;SDS011;35415;47.870;16.058;2023-02-22T01:18:40;2.45;;;1.52;;
49514;SDS011;35415;47.870;16.058;2023-02-22T01:21:10;3.22;;;1.67;;
49514;SDS011;35415;47.870;16.058;2023-02-22T01:23:37;7.65;;;3.35;;
49514;SDS011;35415;47.870;16.058;2023-02-22T01:26:05;2.25;;;1.40;;
49514;SDS011;35415;47.870;16.058;2023-02-22T01:28:37;2.15;;;1.30;;
49514;SDS011;35415;47.870;16.058;2023-02-22T01:31:05;6.88;;;2.15;;
49514;SDS011;35415;47.870;16.058;2023-02-22T01:33:32;5.75;;;2.30;;
49514;SDS011;35415;47.870;16.058;2023-02-22T01:36:01;7.10;;;3.08;;
49514;SDS011;35415;47.870;16.058;2023-02-22T01:38:35;1.98;;;1.00;;
49514;SDS011;35415;47.870;16.058;2023-02-22T01:41:05;4.45;;;1.10;;
49514;SDS011;35415;47.870;16.058;2023-02-22T01:43:33;1.40;;;0.93;;
49514;SDS011;35415;47.870;16.058;2023-02-22T01:46:01;4.50;;;1.85;;
49514;SDS011;35415;47.870;16.058;2023-02-22T01:48:33;5.47;;;1.83;;
49514;SDS011;35415;47.870;16.058;2023-02-22T01:51:12;6.65;;;2.60;;
49514;SDS011;35415;47.870;16.058;2023-02-22T01:53:43;8.05;;;2.65;;
49514;SDS011;35415;47.870;16.058;2023-02-22T01:58:44;3.78;;;1.17;;
49514;SDS011;35415;47.870;16.058;2023-02-22T02:01:15;2.63;;;1.17;;
49514;SDS011;35415;47.870;16.058;2023-02-22T02:03:44;1.40;;;0.90;;
49514;SDS011;35415;47.870;16.058;2023-02-22T02:06:15;0.88;;;0.82;;
49514;SDS011;35415;47.870;16.058;2023-02-22T02:08:46;1.40;;;0.80;;
49514;SDS011;35415;47.870;16.058;2023-02-22T02:11:22;1.10;;;0.70;;
49514;SDS011;35415;47.870;16.058;2023-02-22T02:13:51;3.15;;;0.90;;
49514;SDS011;35415;47.870;16.058;2023-02-22T02:16:22;1.70;;;0.98;;
49514;SDS011;35415;47.870;16.058;2023-02-22T02:18:54;0.65;;;0.60;;
49514;SDS011;35415;47.870;16.058;2023-02-22T02:21:32;0.88;;;0.70;;
49514;SDS011;35415;47.870;16.058;2023-02-22T02:24:23;2.20;;;1.00;;
49514;SDS011;35415;47.870;16.058;2023-02-22T02:27:18;2.88;;;1.45;;
49514;SDS011;35415;47.870;16.058;2023-02-22T02:32:57;1.75;;;1.17;;
49514;SDS011;35415;47.870;16.058;2023-02-22T02:35:36;2.47;;;1.10;;
49514;SDS011;35415;47.870;16.058;2023-02-22T02:38:18;1.15;;;0.90;;
49514;SDS011;35415;47.870;16.058;2023-02-22T02:40:58;1.33;;;1.00;;
49514;SDS011;35415;47.870;16.058;2023-02-22T02:43:37;4.18;;;0.90;;
49514;SDS011;35415;47.870;16.058;2023-02-22T02:46:11;1.23;;;0.80;;
49514;SDS011;35415;47.870;16.058;2023-02-22T02:48:48;1.65;;;1.10;;
49514;SDS011;35415;47.870;16.058;2023-02-22T02:51:21;2.65;;;1.02;;
49514;SDS011;35415;47.870;16.058;2023-02-22T02:53:53;4.07;;;1.63;;
49514;SDS011;35415;47.870;16.058;2023-02-22T02:56:22;2.40;;;1.50;;
49514;SDS011;35415;47.870;16.058;2023-02-22T02:58:52;2.45;;;1.50;;
49514;SDS011;35415;47.870;16.058;2023-02-22T03:01:25;3.15;;;1.95;;
49514;SDS011;35415;47.870;16.058;2023-02-22T03:04:09;2.90;;;1.48;;
49514;SDS011;35415;47.870;16.058;2023-02-22T03:06:51;2.53;;;1.02;;
49514;SDS011;35415;47.870;16.058;2023-02-22T03:09:38;1.60;;;1.00;;
49514;SDS011;35415;47.870;16.058;2023-02-22T03:12:17;3.47;;;1.08;;
49514;SDS011;35415;47.870;16.058;2023-02-22T03:14:57;4.25;;;1.10;;
49514;SDS011;35415;47.870;16.058;2023-02-22T03:17:36;1.88;;;0.98;;
49514;SDS011;35415;47.870;16.058;2023-02-22T03:20:17;6.07;;;1.35;;
49514;SDS011;35415;47.870;16.058;2023-02-22T03:22:57;2.65;;;1.08;;
49514;SDS011;35415;47.870;16.058;2023-02-22T03:25:30;2.13;;;0.95;;
49514;SDS011;35415;47.870;16.058;2023-02-22T03:28:06;2.15;;;1.33;;
49514;SDS011;35415;47.870;16.058;2023-02-22T03:30:38;2.95;;;1.00;;
49514;SDS011;35415;47.870;16.058;2023-02-22T03:33:14;5.63;;;1.20;;
49514;SDS011;35415;47.870;16.058;2023-02-22T03:35:50;3.58;;;1.10;;
49514;SDS011;35415;47.870;16.058;2023-02-22T03:38:27;3.58;;;1.23;;
49514;SDS011;35415;47.870;16.058;2023-02-22T03:40:59;1.80;;;0.90;;
49514;SDS011;35415;47.870;16.058;2023-02-22T03:43:29;4.38;;;1.50;;
49514;SDS011;35415;47.870;16.058;2023-02-22T03:46:03;1.65;;;0.90;;
49514;SDS011;35415;47.870;16.058;2023-02-22T03:48:34;1.15;;;0.77;;
49514;SDS011;35415;47.870;16.058;2023-02-22T03:51:11;1.58;;;1.10;;
49514;SDS011;35415;47.870;16.058;2023-02-22T03:53:40;2.55;;;0.95;;
49514;SDS011;35415;47.870;16.058;2023-02-22T03:56:12;3.42;;;2.00;;
49514;SDS011;35415;47.870;16.058;2023-02-22T03:58:47;2.95;;;1.00;;
49514;SDS011;35415;47.870;16.058;2023-02-22T04:01:16;3.40;;;1.00;;
49514;SDS011;35415;47.870;16.058;2023-02-22T04:03:48;1.42;;;0.90;;
49514;SDS011;35415;47.870;16.058;2023-02-22T04:06:17;0.60;;;0.60;;
49514;SDS011;35415;47.870;16.058;2023-02-22T04:08:47;1.05;;;0.80;;
49514;SDS011;35415;47.870;16.058;2023-02-22T04:11:17;1.48;;;0.98;;
49514;SDS011;35415;47.870;16.058;2023-02-22T04:13:45;2.30;;;0.93;;
49514;SDS011;35415;47.870;16.058;2023-02-22T04:16:16;6.68;;;1.20;;
49514;SDS011;35415;47.870;16.058;2023-02-22T04:18:44;1.77;;;1.10;;
49514;SDS011;35415;47.870;16.058;2023-02-22T04:21:11;1.10;;;0.93;;
49514;SDS011;35415;47.870;16.058;2023-02-22T04:23:42;3.65;;;1.50;;
49514;SDS011;35415;47.870;16.058;2023-02-22T04:26:10;4.57;;;1.30;;
49514;SDS011;35415;47.870;16.058;2023-02-22T04:28:37;1.92;;;1.13;;
49514;SDS011;35415;47.870;16.058;2023-02-22T04:31:05;2.17;;;0.90;;
49514;SDS011;35415;47.870;16.058;2023-02-22T04:33:37;1.90;;;1.00;;
49514;SDS011;35415;47.870;16.058;2023-02-22T04:36:05;1.77;;;0.90;;
49514;SDS011;35415;47.870;16.058;2023-02-22T04:38:33;1.52;;;1.17;;
49514;SDS011;35415;47.870;16.058;2023-02-22T04:41:06;2.78;;;1.30;;
49514;SDS011;35415;47.870;16.058;2023-02-22T04:43:33;4.05;;;1.35;;
49514;SDS011;35415;47.870;16.058;2023-02-22T04:46:01;3.72;;;1.20;;
49514;SDS011;35415;47.870;16.058;2023-02-22T04:48:34;5.70;;;2.40;;
49514;SDS011;35415;47.870;16.058;2023-02-22T04:51:01;9.15;;;1.60;;
49514;SDS011;35415;47.870;16.058;2023-02-22T04:53:29;3.05;;;1.20;;
49514;SDS011;35415;47.870;16.058;2023-02-22T04:55:57;5.10;;;1.38;;
49514;SDS011;35415;47.870;16.058;2023-02-22T04:58:26;6.53;;;1.42;;
49514;SDS011;35415;47.870;16.058;2023-02-22T05:00:54;5.72;;;1.10;;
49514;SDS011;35415;47.870;16.058;2023-02-22T05:03:26;8.07;;;1.77;;
49514;SDS011;35415;47.870;16.058;2023-02-22T05:05:53;4.63;;;1.48;;
49514;SDS011;35415;47.870;16.058;2023-02-22T05:08:20;3.63;;;1.67;;
49514;SDS011;35415;47.870;16.058;2023-02-22T05:10:48;2.28;;;1.67;;
49514;SDS011;35415;47.870;16.058;2023-02-22T05:13:15;2.90;;;1.60;;
49514;SDS011;35415;47.870;16.058;2023-02-22T05:18:16;2.40;;;1.15;;
49514;SDS011;35415;47.870;16.058;2023-02-22T05:20:44;1.95;;;1.13;;
49514;SDS011;35415;47.870;16.058;2023-02-22T05:23:11;4.30;;;1.20;;
49514;SDS011;35415;47.870;16.058;2023-02-22T05:25:41;5.45;;;3.25;;
49514;SDS011;35415;47.870;16.058;2023-02-22T05:28:10;8.27;;;1.77;;
49514;SDS011;35415;47.870;16.058;2023-02-22T05:30:40;1.70;;;1.15;;
49514;SDS011;35415;47.870;16.058;2023-02-22T05:33:11;2.20;;;1.42;;
49514;SDS011;35415;47.870;16.058;2023-02-22T05:35:38;1.80;;;1.27;;
49514;SDS011;35415;47.870;16.058;2023-02-22T05:38:06;5.20;;;1.10;;
49514;SDS011;35415;47.870;16.058;2023-02-22T05:40:39;3.15;;;1.23;;
49514;SDS011;35415;47.870;16.058;2023-02-22T05:43:09;4.22;;;1.60;;
49514;SDS011;35415;47.870;16.058;2023-02-22T05:45:36;5.53;;;1.58;;
49514;SDS011;35415;47.870;16.058;2023-02-22T05:48:04;3.92;;;1.65;;
49514;SDS011;35415;47.870;16.058;2023-02-22T05:50:33;4.30;;;1.45;;
49514;SDS011;35415;47.870;16.058;2023-02-22T05:53:00;1.70;;;0.95;;
49514;SDS011;35415;47.870;16.058;2023-02-22T05:55:29;6.20;;;1.20;;
49514;SDS011;35415;47.870;16.058;2023-02-22T05:57:57;2.00;;;1.30;;
49514;SDS011;35415;47.870;16.058;2023-02-22T06:00:30;10.52;;;1.90;;
49514;SDS011;35415;47.870;16.058;2023-02-22T06:02:58;4.18;;;1.25;;
49514;SDS011;35415;47.870;16.058;2023-02-22T06:05:27;1.80;;;1.27;;
49514;SDS011;35415;47.870;16.058;2023-02-22T06:07:56;1.65;;;1.45;;
49514;SDS011;35415;47.870;16.058;2023-02-22T06:10:24;4.55;;;1.90;;
49514;SDS011;35415;47.870;16.058;2023-02-22T06:12:52;5.45;;;2.90;;
49514;SDS011;35415;47.870;16.058;2023-02-22T06:15:20;9.80;;;4.10;;
49514;SDS011;35415;47.870;16.058;2023-02-22T06:17:49;7.53;;;2.53;;
49514;SDS011;35415;47.870;16.058;2023-02-22T06:20:18;4.95;;;2.20;;
49514;SDS011;35415;47.870;16.058;2023-02-22T06:22:48;7.10;;;2.22;;
49514;SDS011;35415;47.870;16.058;2023-02-22T06:25:20;4.47;;;1.95;;
49514;SDS011;35415;47.870;16.058;2023-02-22T06:27:50;5.70;;;1.90;;
49514;SDS011;35415;47.870;16.058;2023-02-22T06:30:19;3.42;;;2.03;;
49514;SDS011;35415;47.870;16.058;2023-02-22T06:32:47;7.40;;;2.08;;
49514;SDS011;35415;47.870;16.058;2023-02-22T06:35:14;5.03;;;1.60;;
49514;SDS011;35415;47.870;16.058;2023-02-22T06:37:43;3.05;;;1.92;;
49514;SDS011;35415;47.870;16.058;2023-02-22T06:40:10;5.25;;;1.92;;
49514;SDS011;35415;47.870;16.058;2023-02-22T06:42:40;5.95;;;2.17;;
49514;SDS011;35415;47.870;16.058;2023-02-22T06:45:07;3.63;;;1.70;;
49514;SDS011;35415;47.870;16.058;2023-02-22T06:47:36;5.72;;;2.05;;
49514;SDS011;35415;47.870;16.058;2023-02-22T06:50:06;5.05;;;2.00;;
49514;SDS011;35415;47.870;16.058;2023-02-22T06:52:41;7.50;;;2.15;;
49514;SDS011;35415;47.870;16.058;2023-02-22T06:55:23;3.97;;;2.05;;
49514;SDS011;35415;47.870;16.058;2023-02-22T06:57:52;6.72;;;2.38;;
49514;SDS011;35415;47.870;16.058;2023-02-22T07:00:20;6.20;;;2.60;;
49514;SDS011;35415;47.870;16.058;2023-02-22T07:02:50;4.10;;;2.45;;
49514;SDS011;35415;47.870;16.058;2023-02-22T07:05:19;2.83;;;1.65;;
49514;SDS011;35415;47.870;16.058;2023-02-22T07:07:49;4.30;;;2.10;;
49514;SDS011;35415;47.870;16.058;2023-02-22T07:10:18;4.20;;;2.28;;
49514;SDS011;35415;47.870;16.058;2023-02-22T07:12:48;7.43;;;1.83;;
49514;SDS011;35415;47.870;16.058;2023-02-22T07:15:18;3.13;;;2.40;;
49514;SDS011;35415;47.870;16.058;2023-02-22T07:17:50;7.28;;;1.80;;
49514;SDS011;35415;47.870;16.058;2023-02-22T07:20:18;5.05;;;2.63;;
49514;SDS011;35415;47.870;16.058;2023-02-22T07:22:46;6.28;;;2.80;;
49514;SDS011;35415;47.870;16.058;2023-02-22T07:25:14;6.97;;;2.50;;
49514;SDS011;35415;47.870;16.058;2023-02-22T07:27:41;7.15;;;3.35;;
49514;SDS011;35415;47.870;16.058;2023-02-22T07:30:14;8.23;;;3.30;;
49514;SDS011;35415;47.870;16.058;2023-02-22T07:32:47;5.75;;;2.28;;
49514;SDS011;35415;47.870;16.058;2023-02-22T07:35:17;4.88;;;1.98;;
49514;SDS011;35415;47.870;16.058;2023-02-22T07:37:48;4.45;;;2.05;;
49514;SDS011;35415;47.870;16.058;2023-02-22T07:40:16;2.45;;;1.58;;
49514;SDS011;35415;47.870;16.058;2023-02-22T07:42:56;3.25;;;1.50;;
49514;SDS011;35415;47.870;16.058;2023-02-22T07:45:26;3.40;;;1.70;;
49514;SDS011;35415;47.870;16.058;2023-02-22T07:48:01;2.80;;;1.88;;
49514;SDS011;35415;47.870;16.058;2023-02-22T07:50:32;18.20;;;3.92;;
49514;SDS011;35415;47.870;16.058;2023-02-22T07:53:03;3.72;;;2.50;;
49514;SDS011;35415;47.870;16.058;2023-02-22T07:55:35;5.20;;;2.42;;
49514;SDS011;35415;47.870;16.058;2023-02-22T07:58:07;5.18;;;3.72;;
49514;SDS011;35415;47.870;16.058;2023-02-22T08:00:36;6.85;;;2.80;;
49514;SDS011;35415;47.870;16.058;2023-02-22T08:05:39;5.43;;;2.00;;
49514;SDS011;35415;47.870;16.058;2023-02-22T08:08:08;7.22;;;2.25;;
49514;SDS011;35415;47.870;16.058;2023-02-22T08:10:38;6.70;;;2.38;;
49514;SDS011;35415;47.870;16.058;2023-02-22T08:13:07;3.50;;;2.33;;
49514;SDS011;35415;47.870;16.058;2023-02-22T08:15:36;8.70;;;3.50;;
49514;SDS011;35415;47.870;16.058;2023-02-22T08:18:05;3.08;;;2.17;;
49514;SDS011;35415;47.870;16.058;2023-02-22T08:20:36;3.35;;;2.50;;
49514;SDS011;35415;47.870;16.058;2023-02-22T08:23:07;6.00;;;2.25;;
49514;SDS011;35415;47.870;16.058;2023-02-22T08:25:35;3.90;;;1.70;;
49514;SDS011;35415;47.870;16.058;2023-02-22T08:28:05;7.50;;;1.60;;
49514;SDS011;35415;47.870;16.058;2023-02-22T08:30:35;3.50;;;2.10;;
49514;SDS011;35415;47.870;16.058;2023-02-22T08:33:05;3.05;;;1.80;;
49514;SDS011;35415;47.870;16.058;2023-02-22T08:35:32;4.63;;;1.73;;
49514;SDS011;35415;47.870;16.058;2023-02-22T08:38:02;4.60;;;1.92;;
49514;SDS011;35415;47.870;16.058;2023-02-22T08:40:32;2.55;;;1.58;;
49514;SDS011;35415;47.870;16.058;2023-02-22T08:43:00;3.75;;;2.03;;
49514;SDS011;35415;47.870;16.058;2023-02-22T08:45:29;1.98;;;1.60;;
49514;SDS011;35415;47.870;16.058;2023-02-22T08:48:03;2.45;;;1.63;;
49514;SDS011;35415;47.870;16.058;2023-02-22T08:50:35;1.92;;;1.58;;
49514;SDS011;35415;47.870;16.058;2023-02-22T08:53:07;2.60;;;1.15;;
49514;SDS011;35415;47.870;16.058;2023-02-22T08:55:38;6.38;;;1.33;;
49514;SDS011;35415;47.870;16.058;2023-02-22T08:58:11;4.13;;;1.38;;
49514;SDS011;35415;47.870;16.058;2023-02-22T09:00:39;3.83;;;1.55;;
49514;SDS011;35415;47.870;16.058;2023-02-22T09:03:09;1.58;;;1.23;;
49514;SDS011;35415;47.870;16.058;2023-02-22T09:05:38;2.42;;;1.50;;
49514;SDS011;35415;47.870;16.058;2023-02-22T09:08:07;2.33;;;1.50;;
49514;SDS011;35415;47.870;16.058;2023-02-22T09:10:35;6.07;;;1.50;;
49514;SDS011;35415;47.870;16.058;2023-02-22T09:13:02;2.65;;;1.92;;
49514;SDS011;35415;47.870;16.058;2023-02-22T09:15:30;3.50;;;1.30;;
49514;SDS011;35415;47.870;16.058;2023-02-22T09:18:00;2.70;;;1.27;;
49514;SDS011;35415;47.870;16.058;2023-02-22T09:20:27;2.20;;;1.35;;
49514;SDS011;35415;47.870;16.058;2023-02-22T09:22:56;2.13;;;1.20;;
49514;SDS011;35415;47.870;16.058;2023-02-22T09:25:29;1.90;;;1.20;;
49514;SDS011;35415;47.870;16.058;2023-02-22T09:27:58;3.38;;;1.20;;
49514;SDS011;35415;47.870;16.058;2023-02-22T09:30:28;1.92;;;1.30;;
49514;SDS011;35415;47.870;16.058;2023-02-22T09:32:58;1.73;;;1.20;;
49514;SDS011;35415;47.870;16.058;2023-02-22T09:35:26;2.53;;;1.55;;
49514;SDS011;35415;47.870;16.058;2023-02-22T09:37:54;1.65;;;1.27;;
49514;SDS011;35415;47.870;16.058;2023-02-22T09:40:22;3.92;;;1.15;;
49514;SDS011;35415;47.870;16.058;2023-02-22T09:45:45;2.53;;;1.60;;
49514;SDS011;35415;47.870;16.058;2023-02-22T09:48:27;3.25;;;1.27;;
49514;SDS011;35415;47.870;16.058;2023-02-22T09:50:56;1.45;;;1.00;;
49514;SDS011;35415;47.870;16.058;2023-02-22T09:53:26;3.63;;;1.50;;
49514;SDS011;35415;47.870;16.058;2023-02-22T09:56:00;1.73;;;1.52;;
49514;SDS011;35415;47.870;16.058;2023-02-22T09:58:37;2.30;;;1.45;;
49514;SDS011;35415;47.870;16.058;2023-02-22T10:01:15;2.90;;;1.60;;
49514;SDS011;35415;47.870;16.058;2023-02-22T10:03:52;3.97;;;1.50;;
49514;SDS011;35415;47.870;16.058;2023-02-22T10:06:25;2.97;;;1.83;;
49514;SDS011;35415;47.870;16.058;2023-02-22T10:08:58;2.42;;;1.65;;
49514;SDS011;35415;47.870;16.058;2023-02-22T10:17:23;2.80;;;1.48;;
49514;SDS011;35415;47.870;16.058;2023-02-22T10:20:04;2.72;;;1.45;;
49514;SDS011;35415;47.870;16.058;2023-02-22T10:22:54;2.72;;;1.70;;
49514;SDS011;35415;47.870;16.058;2023-02-22T10:25:30;3.90;;;2.08;;
49514;SDS011;35415;47.870;16.058;2023-02-22T10:28:05;2.63;;;1.83;;
49514;SDS011;35415;47.870;16.058;2023-02-22T10:30:41;2.55;;;1.35;;
49514;SDS011;35415;47.870;16.058;2023-02-22T10:33:12;2.70;;;1.38;;
49514;SDS011;35415;47.870;16.058;2023-02-22T10:35:43;1.85;;;1.58;;
49514;SDS011;35415;47.870;16.058;2023-02-22T10:38:12;1.98;;;1.63;;
49514;SDS011;35415;47.870;16.058;2023-02-22T10:40:47;4.25;;;1.45;;
49514;SDS011;35415;47.870;16.058;2023-02-22T10:43:17;2.03;;;1.75;;
49514;SDS011;35415;47.870;16.058;2023-02-22T10:45:45;3.33;;;1.60;;
49514;SDS011;35415;47.870;16.058;2023-02-22T10:48:13;3.00;;;1.92;;
49514;SDS011;35415;47.870;16.058;2023-02-22T10:50:44;5.07;;;2.13;;
49514;SDS011;35415;47.870;16.058;2023-02-22T10:53:12;2.72;;;1.83;;
49514;SDS011;35415;47.870;16.058;2023-02-22T10:58:38;3.37;;;1.83;;
49514;SDS011;35415;47.870;16.058;2023-02-22T11:01:17;2.95;;;1.85;;
49514;SDS011;35415;47.870;16.058;2023-02-22T11:03:57;4.00;;;2.00;;
49514;SDS011;35415;47.870;16.058;2023-02-22T11:06:27;3.42;;;2.03;;
49514;SDS011;35415;47.870;16.058;2023-02-22T11:09:04;4.38;;;2.10;;
49514;SDS011;35415;47.870;16.058;2023-02-22T11:11:41;4.40;;;2.75;;
49514;SDS011;35415;47.870;16.058;2023-02-22T11:14:24;6.72;;;2.38;;
49514;SDS011;35415;47.870;16.058;2023-02-22T11:16:58;7.15;;;2.95;;
49514;SDS011;35415;47.870;16.058;2023-02-22T11:19:30;7.35;;;3.70;;
49514;SDS011;35415;47.870;16.058;2023-02-22T11:21:58;3.55;;;2.22;;
49514;SDS011;35415;47.870;16.058;2023-02-22T11:24:42;2.42;;;1.98;;
49514;SDS011;35415;47.870;16.058;2023-02-22T11:27:20;5.28;;;2.05;;
49514;SDS011;35415;47.870;16.058;2023-02-22T11:29:52;13.35;;;6.22;;
49514;SDS011;35415;47.870;16.058;2023-02-22T11:32:24;18.38;;;7.88;;
49514;SDS011;35415;47.870;16.058;2023-02-22T11:34:51;22.80;;;11.20;;
49514;SDS011;35415;47.870;16.058;2023-02-22T11:37:39;5.22;;;2.70;;
49514;SDS011;35415;47.870;16.058;2023-02-22T11:40:10;3.08;;;2.20;;
49514;SDS011;35415;47.870;16.058;2023-02-22T11:42:47;3.45;;;1.98;;
49514;SDS011;35415;47.870;16.058;2023-02-22T11:45:16;3.33;;;2.08;;
49514;SDS011;35415;47.870;16.058;2023-02-22T11:48:04;5.20;;;2.03;;
49514;SDS011;35415;47.870;16.058;2023-02-22T11:50:33;2.90;;;2.10;;
49514;SDS011;35415;47.870;16.058;2023-02-22T11:53:18;3.80;;;1.90;;
49514;SDS011;35415;47.870;16.058;2023-02-22T11:55:53;2.85;;;2.10;;
49514;SDS011;35415;47.870;16.058;2023-02-22T12:01:54;2.00;;;1.58;;
49514;SDS011;35415;47.870;16.058;2023-02-22T12:04:36;4.75;;;1.80;;
49514;SDS011;35415;47.870;16.058;2023-02-22T12:07:28;5.90;;;3.65;;
49514;SDS011;35415;47.870;16.058;2023-02-22T12:10:13;4.22;;;2.05;;
49514;SDS011;35415;47.870;16.058;2023-02-22T12:12:55;2.15;;;1.50;;
49514;SDS011;35415;47.870;16.058;2023-02-22T12:15:35;2.42;;;1.42;;
49514;SDS011;35415;47.870;16.058;2023-02-22T12:18:17;4.30;;;2.78;;
49514;SDS011;35415;47.870;16.058;2023-02-22T12:20:54;3.33;;;2.20;;
49514;SDS011;35415;47.870;16.058;2023-02-22T12:23:24;2.47;;;1.95;;
49514;SDS011;35415;47.870;16.058;2023-02-22T12:25:57;4.80;;;2.10;;
49514;SDS011;35415;47.870;16.058;2023-02-22T12:28:31;3.72;;;2.00;;
49514;SDS011;35415;47.870;16.058;2023-02-22T12:31:07;2.88;;;2.17;;
49514;SDS011;35415;47.870;16.058;2023-02-22T12:33:47;2.88;;;2.10;;
49514;SDS011;35415;47.870;16.058;2023-02-22T12:36:34;5.60;;;2.47;;
49514;SDS011;35415;47.870;16.058;2023-02-22T12:39:34;5.95;;;2.33;;
49514;SDS011;35415;47.870;16.058;2023-02-22T12:42:16;4.72;;;2.80;;
49514;SDS011;35415;47.870;16.058;2023-02-22T12:44:51;3.67;;;2.05;;
49514;SDS011;35415;47.870;16.058;2023-02-22T12:47:25;5.35;;;2.25;;
49514;SDS011;35415;47.870;16.058;2023-02-22T12:50:01;5.20;;;2.90;;
49514;SDS011;35415;47.870;16.058;2023-02-22T12:52:45;5.07;;;2.88;;
49514;SDS011;35415;47.870;16.058;2023-02-22T12:55:19;5.55;;;2.90;;
49514;SDS011;35415;47.870;16.058;2023-02-22T12:57:52;6.75;;;2.65;;
49514;SDS011;35415;47.870;16.058;2023-02-22T13:00:29;9.02;;;3.03;;
49514;SDS011;35415;47.870;16.058;2023-02-22T13:03:01;4.07;;;2.72;;
49514;SDS011;35415;47.870;16.058;2023-02-22T13:05:38;7.75;;;3.10;;
49514;SDS011;35415;47.870;16.058;2023-02-22T13:08:13;5.80;;;2.75;;
49514;SDS011;35415;47.870;16.058;2023-02-22T13:13:44;5.35;;;3.00;;
49514;SDS011;35415;47.870;16.058;2023-02-22T13:16:26;5.30;;;2.95;;
49514;SDS011;35415;47.870;16.058;2023-02-22T13:19:05;6.25;;;4.18;;
49514;SDS011;35415;47.870;16.058;2023-02-22T13:21:43;4.25;;;2.75;;
49514;SDS011;35415;47.870;16.058;2023-02-22T13:24:20;4.00;;;2.67;;
49514;SDS011;35415;47.870;16.058;2023-02-22T13:26:56;5.00;;;2.80;;
49514;SDS011;35415;47.870;16.058;2023-02-22T13:29:29;4.20;;;2.33;;
49514;SDS011;35415;47.870;16.058;2023-02-22T13:34:46;3.67;;;2.30;;
49514;SDS011;35415;47.870;16.058;2023-02-22T13:37:35;5.90;;;2.10;;
49514;SDS011;35415;47.870;16.058;2023-02-22T13:40:27;4.82;;;2.65;;
49514;SDS011;35415;47.870;16.058;2023-02-22T13:43:29;7.80;;;2.88;;
49514;SDS011;35415;47.870;16.058;2023-02-22T13:49:30;4.72;;;2.35;;
49514;SDS011;35415;47.870;16.058;2023-02-22T13:52:19;3.35;;;2.00;;
49514;SDS011;35415;47.870;16.058;2023-02-22T13:54:50;3.75;;;1.98;;
49514;SDS011;35415;47.870;16.058;2023-02-22T13:57:22;5.25;;;2.40;;
49514;SDS011;35415;47.870;16.058;2023-02-22T14:03:04;4.55;;;2.50;;
49514;SDS011;35415;47.870;16.058;2023-02-22T14:14:15;4.60;;;1.98;;
49514;SDS011;35415;47.870;16.058;2023-02-22T14:20:00;10.10;;;4.25;;
49514;SDS011;35415;47.870;16.058;2023-02-22T14:22:30;10.93;;;4.95;;
49514;SDS011;35415;47.870;16.058;2023-02-22T14:25:00;7.05;;;3.53;;
49514;SDS011;35415;47.870;16.058;2023-02-22T14:27:37;13.07;;;4.68;;
49514;SDS011;35415;47.870;16.058;2023-02-22T14:30:20;4.45;;;2.67;;
49514;SDS011;35415;47.870;16.058;2023-02-22T14:32:51;5.43;;;2.90;;
49514;SDS011;35415;47.870;16.058;2023-02-22T14:35:19;4.72;;;3.00;;
49514;SDS011;35415;47.870;16.058;2023-02-22T14:37:51;4.93;;;2.60;;
49514;SDS011;35415;47.870;16.058;2023-02-22T14:40:22;6.22;;;2.30;;
49514;SDS011;35415;47.870;16.058;2023-02-22T14:42:57;2.95;;;2.22;;
49514;SDS011;35415;47.870;16.058;2023-02-22T14:45:33;4.57;;;2.72;;
49514;SDS011;35415;47.870;16.058;2023-02-22T14:48:11;3.47;;;2.30;;
49514;SDS011;35415;47.870;16.058;2023-02-22T14:50:50;3.67;;;2.40;;
49514;SDS011;35415;47.870;16.058;2023-02-22T14:53:25;3.55;;;2.53;;
49514;SDS011;35415;47.870;16.058;2023-02-22T14:55:58;3.60;;;2.20;;
49514;SDS011;35415;47.870;16.058;2023-02-22T14:58:29;3.22;;;1.80;;
49514;SDS011;35415;47.870;16.058;2023-02-22T15:01:23;5.45;;;2.15;;
49514;SDS011;35415;47.870;16.058;2023-02-22T15:03:54;2.22;;;1.95;;
49514;SDS011;35415;47.870;16.058;2023-02-22T15:06:23;3.30;;;1.80;;
49514;SDS011;35415;47.870;16.058;2023-02-22T15:11:39;6.20;;;2.72;;
49514;SDS011;35415;47.870;16.058;2023-02-22T15:14:14;11.27;;;6.80;;
49514;SDS011;35415;47.870;16.058;2023-02-22T15:16:47;3.75;;;2.28;;
49514;SDS011;35415;47.870;16.058;2023-02-22T15:19:18;3.28;;;2.60;;
49514;SDS011;35415;47.870;16.058;2023-02-22T15:21:53;4.85;;;2.40;;
49514;SDS011;35415;47.870;16.058;2023-02-22T15:24:23;5.35;;;2.75;;
49514;SDS011;35415;47.870;16.058;2023-02-22T15:26:55;6.00;;;2.47;;
49514;SDS011;35415;47.870;16.058;2023-02-22T15:29:32;3.72;;;1.85;;
49514;SDS011;35415;47.870;16.058;2023-02-22T15:34:43;5.57;;;2.83;;
49514;SDS011;35415;47.870;16.058;2023-02-22T15:37:13;5.82;;;2.60;;
49514;SDS011;35415;47.870;16.058;2023-02-22T15:39:49;3.85;;;3.10;;
49514;SDS011;35415;47.870;16.058;2023-02-22T15:42:23;7.78;;;4.00;;
49514;SDS011;35415;47.870;16.058;2023-02-22T15:44:54;4.78;;;2.83;;
49514;SDS011;35415;47.870;16.058;2023-02-22T15:47:26;3.03;;;2.20;;
49514;SDS011;35415;47.870;16.058;2023-02-22T15:50:16;3.55;;;2.28;;
49514;SDS011;35415;47.870;16.058;2023-02-22T15:52:48;4.88;;;2.40;;
49514;SDS011;35415;47.870;16.058;2023-02-22T15:55:23;5.30;;;3.33;;
49514;SDS011;35415;47.870;16.058;2023-02-22T15:57:53;4.47;;;2.67;;
49514;SDS011;35415;47.870;16.058;2023-02-22T16:00:23;4.57;;;2.13;;
49514;SDS011;35415;47.870;16.058;2023-02-22T16:03:02;3.80;;;2.72;;